Time;durP1;ratioP1;P1;durP2;ratioP2;P2;SDS_P1;SDS_P2;PMS_P1;PMS_P2;Temp;Humidity;BMP_temperature;BMP_pressure;BME280_temperature;BME280_humidity;BME280_pressure;Samples;Min_cycle;Max_cycle;Signal;HPM_P1;HPM_P2
2022/09/07 00:01:12;;;;;;;11.63;4.90;;;;;;;19.93;80.65;98880.88;4979323;28;20053;-95
2022/09/07 00:03:38;;;;;;;7.80;4.22;;;;;;;19.89;80.23;98877.50;4979922;28;20095;-96
2022/09/07 00:06:06;;;;;;;7.60;4.57;;;;;;;19.93;80.02;98888.09;4979118;28;20066;-94
2022/09/07 00:08:32;;;;;;;7.80;4.50;;;;;;;19.89;81.32;98885.59;4979984;28;20054;-94
2022/09/07 00:11:02;;;;;;;7.22;4.60;;;;;;;19.88;81.04;98885.69;4978944;28;20081;-94
2022/09/07 00:13:31;;;;;;;9.80;4.60;;;;;;;19.87;81.32;98884.81;4979062;28;20039;-94
2022/09/07 00:15:57;;;;;;;;;;;;;;;20.05;80.81;98917.00;4978943;28;20043;-93
2022/09/07 00:18:29;;;;;;;8.10;4.38;;;;;;;19.92;80.56;98889.06;4979487;28;19922;-95
2022/09/07 00:20:59;;;;;;;9.50;4.30;;;;;;;19.97;79.70;98885.09;4979109;28;20116;-95
2022/09/07 00:23:27;;;;;;;7.95;4.40;;;;;;;19.93;79.86;98886.28;4979646;28;20054;-95
2022/09/07 00:25:53;;;;;;;10.20;4.80;;;;;;;20.13;79.78;98909.28;4979489;28;20065;-96
2022/09/07 00:28:20;;;;;;;7.47;4.13;;;;;;;20.01;79.63;98883.06;4979178;28;20443;-94
2022/09/07 00:30:46;;;;;;;9.95;4.57;;;;;;;20.13;79.80;98897.63;4978650;28;20530;-93
2022/09/07 00:33:12;;;;;;;7.95;4.15;;;;;;;20.07;79.63;98880.84;4979693;28;20043;-96
2022/09/07 00:35:42;;;;;;;6.50;4.10;;;;;;;20.11;79.74;98882.38;4979631;28;20082;-95
2022/09/07 00:38:08;;;;;;;6.97;4.30;;;;;;;20.13;79.92;98879.59;4979927;28;20053;-94
2022/09/07 00:40:35;;;;;;;7.53;4.85;;;;;;;20.13;80.80;98882.28;4979745;28;20102;-95
2022/09/07 00:43:01;;;;;;;8.13;4.45;;;;;;;20.23;81.25;98885.25;4979473;28;20047;-93
2022/09/07 00:45:28;;;;;;;8.23;4.60;;;;;;;20.29;82.09;98890.25;4979731;28;20141;-94
2022/09/07 00:47:59;;;;;;;7.50;4.35;;;;;;;20.16;81.87;98868.59;4979315;28;20047;-95
2022/09/07 00:50:29;;;;;;;6.68;4.47;;;;;;;20.34;82.39;98893.50;4979017;28;20061;-95
2022/09/07 00:52:59;;;;;;;10.38;4.78;;;;;;;20.20;83.09;98886.31;4979454;28;20472;-95
2022/09/07 00:55:26;;;;;;;8.48;4.40;;;;;;;19.99;82.70;98869.66;4979677;28;20050;-94
2022/09/07 00:57:54;;;;;;;8.15;5.05;;;;;;;19.97;82.82;98868.03;4979335;28;20050;-96
2022/09/07 01:00:21;;;;;;;6.40;4.38;;;;;;;19.98;81.83;98883.28;4979255;28;20520;-94
2022/09/07 01:02:51;;;;;;;5.50;3.90;;;;;;;19.77;81.37;98848.59;4978975;28;20125;-94
2022/09/07 01:05:22;;;;;;;8.32;4.45;;;;;;;19.77;81.00;98839.63;4979729;28;20075;-94
2022/09/07 01:07:48;;;;;;;9.75;4.40;;;;;;;19.66;82.18;98859.16;4979197;28;20077;-93
2022/09/07 01:10:14;;;;;;;10.27;4.65;;;;;;;19.49;82.03;98836.78;4978773;28;20062;-95
2022/09/07 01:12:40;;;;;;;8.32;4.40;;;;;;;19.47;82.50;98844.16;4978563;28;20051;-95
2022/09/07 01:15:07;;;;;;;9.30;4.63;;;;;;;19.47;84.37;98864.81;4977949;28;20043;-95
2022/09/07 01:17:47;;;;;;;8.13;4.70;;;;;;;19.23;84.32;98830.31;4978331;28;20066;-94
2022/09/07 01:20:41;;;;;;;7.97;5.05;;;;;;;19.29;83.78;98847.97;4979482;28;20427;-95
2022/09/07 01:23:46;;;;;;;12.55;5.28;;;;;;;19.31;83.24;98823.63;4978857;28;20039;-93
2022/09/07 01:26:49;;;;;;;11.32;4.57;;;;;;;19.43;83.88;98853.38;4979196;28;20043;-94
2022/09/07 01:29:21;;;;;;;7.68;5.00;;;;;;;19.23;84.22;98824.94;4978674;28;20108;-95
2022/09/07 01:31:58;;;;;;;8.50;5.30;;;;;;;19.05;85.54;98828.78;4979612;28;20038;-94
2022/09/07 01:34:25;;;;;;;8.98;4.93;;;;;;;19.00;86.32;98837.13;4978954;28;20047;-93
2022/09/07 01:39:47;;;;;;;8.73;5.18;;;;;;;18.93;87.58;98834.91;4997265;28;20479;-94
2022/09/07 01:42:17;;;;;;;10.48;4.57;;;;;;;18.90;86.52;98818.94;4999460;28;20054;-94
2022/09/07 01:44:49;;;;;;;9.23;5.22;;;;;;;18.98;87.17;98839.06;4998648;28;20053;-95
2022/09/07 01:47:19;;;;;;;10.80;5.30;;;;;;;18.94;87.39;98837.50;4997422;28;20042;-94
2022/09/07 01:49:50;;;;;;;10.23;4.88;;;;;;;18.82;87.45;98822.06;4997710;28;20046;-95
2022/09/07 01:52:26;;;;;;;8.05;4.95;;;;;;;18.83;87.17;98821.13;4999444;28;20046;-94
2022/09/07 01:54:59;;;;;;;11.73;5.45;;;;;;;18.81;89.08;98841.91;4998061;28;20038;-94
2022/09/07 01:57:32;;;;;;;8.48;5.22;;;;;;;18.67;90.51;98822.00;4998513;28;20050;-93
2022/09/07 02:00:06;;;;;;;8.63;4.90;;;;;;;18.80;91.02;98851.81;4998210;28;20137;-94
2022/09/07 02:02:38;;;;;;;8.45;4.75;;;;;;;18.57;90.06;98814.56;4998921;28;20426;-95
2022/09/07 02:05:07;;;;;;;7.10;4.50;;;;;;;18.69;88.19;98800.34;4998949;28;20046;-94
2022/09/07 02:07:40;;;;;;;10.13;4.97;;;;;;;18.77;87.68;98800.75;4998065;28;20049;-94
2022/09/07 02:10:11;;;;;;;8.95;5.20;;;;;;;18.76;88.44;98811.63;4996511;28;20050;-93
2022/09/07 02:12:43;;;;;;;9.18;4.50;;;;;;;18.68;88.48;98821.03;4997741;28;20046;-93
2022/09/07 02:15:15;;;;;;;7.90;4.80;;;;;;;18.80;88.75;98835.66;4997295;28;20066;-94
2022/09/07 02:17:43;;;;;;;8.18;5.00;;;;;;;18.78;88.42;98831.28;4998427;28;20046;-94
2022/09/07 02:20:13;;;;;;;10.40;4.88;;;;;;;18.79;88.06;98824.97;4997689;28;20050;-94
2022/09/07 02:22:43;;;;;;;9.35;4.97;;;;;;;18.70;88.27;98815.56;4997721;28;20046;-94
2022/09/07 02:25:15;;;;;;;8.77;5.13;;;;;;;18.68;88.36;98817.47;4999255;28;20046;-94
2022/09/07 02:27:46;;;;;;;14.15;5.40;;;;;;;18.71;87.94;98829.91;4997057;28;20451;-95
2022/09/07 02:30:14;;;;;;;11.02;5.18;;;;;;;18.73;89.17;98833.38;4997483;28;20050;-95
2022/09/07 02:32:40;;;;;;;9.23;4.82;;;;;;;18.73;89.14;98841.44;4998135;28;20506;-95
2022/09/07 02:35:06;;;;;;;8.02;4.78;;;;;;;18.73;89.92;98849.53;4996722;28;20129;-96
2022/09/07 02:37:33;;;;;;;9.85;5.00;;;;;;;18.50;91.15;98813.16;4995887;28;20486;-94
2022/09/07 02:39:59;;;;;;;9.90;4.90;;;;;;;18.62;91.21;98840.25;5003766;28;20039;-95
2022/09/07 02:42:28;;;;;;;9.07;4.72;;;;;;;18.37;91.85;98811.22;5078898;28;20217;-95
2022/09/07 02:44:54;;;;;;;10.27;5.35;;;;;;;18.22;92.22;98812.09;5012000;28;20038;-95
2022/09/07 02:47:30;;;;;;;8.55;5.40;;;;;;;18.19;93.31;98823.91;4997637;28;20046;-94
2022/09/07 02:50:14;;;;;;;9.02;5.07;;;;;;;18.31;93.10;98853.78;4997688;28;20050;-92
2022/09/07 02:52:50;;;;;;;8.27;5.03;;;;;;;18.23;92.89;98841.59;4996613;28;20046;-95
2022/09/07 02:55:31;;;;;;;8.00;5.03;;;;;;;18.07;92.42;98819.22;5061541;28;20079;-94
2022/09/07 02:58:12;;;;;;;7.70;4.82;;;;;;;18.18;92.72;98835.63;4977778;28;20051;-94
2022/09/07 03:00:44;;;;;;;8.50;5.15;;;;;;;18.27;92.39;98831.53;4978422;28;20051;-95
2022/09/07 03:03:21;;;;;;;8.82;5.75;;;;;;;18.23;92.70;98833.53;4977249;28;20043;-95
2022/09/07 03:05:51;;;;;;;10.23;5.15;;;;;;;18.08;93.38;98809.34;4982194;28;20082;-94
2022/09/07 03:08:22;;;;;;;9.25;5.07;;;;;;;18.18;93.57;98830.25;4997680;28;20383;-95
2022/09/07 03:10:49;;;;;;;7.47;4.65;;;;;;;18.01;94.11;98804.28;4998044;28;20050;-94
2022/09/07 03:13:27;;;;;;;11.65;5.03;;;;;;;18.10;94.08;98823.56;4997426;28;20392;-94
2022/09/07 03:15:53;;;;;;;10.07;4.88;;;;;;;18.02;94.11;98807.84;4997214;28;20091;-94
2022/09/07 03:18:21;;;;;;;9.15;5.18;;;;;;;18.06;94.76;98809.41;4996997;28;20059;-94
2022/09/07 03:20:47;;;;;;;10.23;5.10;;;;;;;18.02;94.53;98805.16;4996949;28;20050;-94
2022/09/07 03:23:13;;;;;;;8.90;4.97;;;;;;;18.04;94.95;98822.97;5003652;28;20076;-95
2022/09/07 03:25:39;;;;;;;10.48;5.40;;;;;;;17.92;95.50;98796.75;5082143;28;20053;-94
2022/09/07 03:28:05;;;;;;;8.57;4.95;;;;;;;18.04;95.78;98811.31;5081780;28;20045;-95
2022/09/07 03:30:31;;;;;;;9.95;5.05;;;;;;;18.06;95.53;98815.69;5081243;28;20087;-94
2022/09/07 03:32:58;;;;;;;10.85;5.40;;;;;;;17.96;95.88;98808.22;5068490;28;20042;-94
2022/09/07 03:35:25;;;;;;;10.93;4.88;;;;;;;17.86;96.49;98791.72;5000048;28;20039;-95
2022/09/07 03:37:51;;;;;;;13.73;5.55;;;;;;;17.89;96.23;98790.66;4998512;28;20058;-94
2022/09/07 03:40:17;;;;;;;8.13;5.13;;;;;;;17.79;96.65;98783.09;4999417;28;20076;-94
2022/09/07 03:42:47;;;;;;;11.57;5.35;;;;;;;17.86;96.60;98799.78;5000429;28;20114;-94
2022/09/07 03:45:13;;;;;;;11.00;6.18;;;;;;;17.73;96.50;98785.25;5000320;28;20105;-94
2022/09/07 03:47:39;;;;;;;11.73;5.55;;;;;;;17.80;97.09;98800.97;5007899;28;20053;-94
2022/09/07 03:50:06;;;;;;;9.32;5.00;;;;;;;17.61;97.33;98781.44;5055964;28;20039;-93
2022/09/07 03:52:34;;;;;;;8.55;5.75;;;;;;;17.64;97.42;98794.72;4999301;28;20051;-94
2022/09/07 03:55:00;;;;;;;8.38;5.13;;;;;;;17.61;97.82;98792.19;4998724;28;20041;-95
2022/09/07 03:57:26;;;;;;;11.73;5.28;;;;;;;17.52;98.05;98785.50;4998391;28;20042;-93
2022/09/07 03:59:52;;;;;;;12.15;6.05;;;;;;;17.52;97.92;98790.00;4998705;28;20100;-93
2022/09/07 04:02:18;;;;;;;13.73;6.05;;;;;;;17.50;98.34;98799.97;4998712;28;20050;-95
2022/09/07 04:04:44;;;;;;;11.02;5.93;;;;;;;17.45;99.20;98803.78;5017204;28;20041;-94
2022/09/07 04:07:10;;;;;;;9.50;5.60;;;;;;;17.61;99.05;98821.78;5002735;28;20050;-93
2022/09/07 04:09:38;;;;;;;8.07;5.60;;;;;;;17.65;98.31;98824.22;4997548;28;20490;-94
2022/09/07 04:12:04;;;;;;;11.70;6.32;;;;;;;17.50;99.04;98794.59;4997754;28;20047;-94
2022/09/07 04:14:30;;;;;;;8.45;6.07;;;;;;;17.68;99.46;98836.63;4997639;28;20525;-94
2022/09/07 04:16:56;;;;;;;11.40;6.38;;;;;;;17.62;99.14;98829.75;4997931;28;20137;-94
2022/09/07 04:19:22;;;;;;;12.98;6.40;;;;;;;17.61;97.88;98800.28;4998181;28;20085;-94
2022/09/07 04:21:48;;;;;;;12.27;6.35;;;;;;;17.58;98.04;98821.94;4997724;28;20046;-95
2022/09/07 04:24:14;;;;;;;8.55;5.50;;;;;;;17.56;98.21;98822.00;4997354;28;20035;-93
2022/09/07 04:26:42;;;;;;;14.23;6.30;;;;;;;17.65;99.25;98836.78;4997025;28;20042;-95
2022/09/07 04:29:10;;;;;;;14.80;6.25;;;;;;;17.56;98.61;98829.22;4997743;28;20046;-94
2022/09/07 04:31:36;;;;;;;13.75;6.32;;;;;;;17.63;99.45;98836.88;4997063;28;20050;-94
2022/09/07 04:34:03;;;;;;;12.75;5.90;;;;;;;17.59;99.07;98823.69;5022149;28;20037;-94
2022/09/07 04:36:30;;;;;;;10.73;5.95;;;;;;;17.66;99.18;98825.94;5055741;28;20041;-95
2022/09/07 04:38:58;;;;;;;11.65;6.15;;;;;;;17.71;98.88;98828.38;5079995;28;20072;-94
2022/09/07 04:41:25;;;;;;;11.43;5.95;;;;;;;17.72;97.82;98823.84;5081113;28;20136;-94
2022/09/07 04:43:54;;;;;;;8.95;5.78;;;;;;;17.85;96.51;98844.66;5036653;28;20054;-93
2022/09/07 04:46:23;;;;;;;11.13;6.00;;;;;;;17.71;95.82;98823.00;4996810;28;20049;-95
2022/09/07 04:48:49;;;;;;;9.20;5.60;;;;;;;17.84;94.96;98840.22;4996528;28;20046;-94
2022/09/07 04:51:16;;;;;;;10.60;5.57;;;;;;;18.02;94.18;98853.59;4995747;28;20349;-94
2022/09/07 04:53:42;;;;;;;7.97;5.80;;;;;;;17.98;94.04;98836.78;4995429;28;20101;-93
2022/09/07 04:56:08;;;;;;;9.18;5.50;;;;;;;17.99;93.43;98824.19;4994701;28;20035;-94
2022/09/07 04:58:34;;;;;;;10.80;5.72;;;;;;;18.10;92.27;98842.41;4995315;28;20046;-93
2022/09/07 05:01:03;;;;;;;9.68;5.30;;;;;;;18.13;92.93;98831.44;4994432;28;20053;-93
2022/09/07 05:03:29;;;;;;;10.48;5.72;;;;;;;18.19;93.53;98850.81;4994392;28;20047;-95
2022/09/07 05:05:55;;;;;;;9.75;5.50;;;;;;;18.10;93.91;98839.72;4994694;28;20034;-95
2022/09/07 05:08:21;;;;;;;8.95;5.35;;;;;;;18.17;93.73;98858.13;4996362;28;20061;-94
2022/09/07 05:10:50;;;;;;;11.73;5.35;;;;;;;18.06;94.46;98849.78;4994991;28;20042;-94
2022/09/07 05:13:16;;;;;;;8.40;5.30;;;;;;;18.08;95.21;98841.63;4995161;28;20074;-94
2022/09/07 05:15:42;;;;;;;12.80;5.88;;;;;;;18.00;95.71;98828.59;4996274;28;20134;-95
2022/09/07 05:18:09;;;;;;;9.20;5.72;;;;;;;17.94;96.12;98835.19;5007215;28;20438;-94
2022/09/07 05:20:36;;;;;;;10.43;5.75;;;;;;;17.97;95.86;98831.47;4996415;28;20109;-94
2022/09/07 05:23:02;;;;;;;12.32;6.30;;;;;;;17.94;96.18;98835.19;4995286;28;20054;-94
2022/09/07 05:25:28;;;;;;;10.13;5.68;;;;;;;17.95;95.85;98834.22;4995422;28;20038;-95
2022/09/07 05:27:54;;;;;;;12.07;6.05;;;;;;;18.11;95.24;98838.75;4995819;28;20062;-94
2022/09/07 05:30:20;;;;;;;10.57;5.75;;;;;;;18.26;95.21;98854.91;5011807;28;20037;-94
2022/09/07 05:32:46;;;;;;;9.88;5.32;;;;;;;18.16;95.12;98829.47;5078982;28;20052;-94
2022/09/07 05:35:15;;;;;;;11.73;6.05;;;;;;;18.25;93.38;98836.16;5054583;28;20059;-92
2022/09/07 05:37:41;;;;;;;15.32;5.85;;;;;;;18.37;92.90;98842.66;4997330;28;20054;-92
2022/09/07 05:40:08;;;;;;;11.90;6.13;;;;;;;18.41;92.03;98842.41;4998532;28;20071;-95
2022/09/07 05:42:34;;;;;;;8.38;5.38;;;;;;;18.47;91.92;98841.16;4998225;28;20042;-94
2022/09/07 05:45:00;;;;;;;11.30;5.57;;;;;;;18.68;89.88;98847.13;4998131;28;20556;-94
2022/09/07 05:47:26;;;;;;;11.82;5.65;;;;;;;19.01;89.86;98865.81;4996979;28;20087;-93
2022/09/07 05:49:53;;;;;;;10.82;6.22;;;;;;;18.98;87.76;98838.19;5002609;28;20042;-93
2022/09/07 05:52:21;;;;;;;14.73;6.25;;;;;;;19.05;87.33;98828.78;5002218;28;20104;-95
2022/09/07 05:54:47;;;;;;;9.57;5.88;;;;;;;19.11;87.43;98839.19;5000545;28;20053;-94
2022/09/07 05:57:13;;;;;;;7.75;5.55;;;;;;;19.25;86.82;98855.38;5000700;28;20070;-93
2022/09/07 05:59:39;;;;;;;12.48;5.97;;;;;;;19.25;86.62;98838.34;5001592;28;20227;-94
2022/09/07 06:02:05;;;;;;;8.85;5.75;;;;;;;19.33;86.43;98827.94;5002817;28;20057;-93
2022/09/07 06:04:32;;;;;;;10.10;5.43;;;;;;;19.47;86.93;98829.78;5004950;28;20051;-95
2022/09/07 06:06:58;;;;;;;11.93;6.45;;;;;;;19.60;86.32;98835.25;5005772;28;20059;-94
2022/09/07 06:09:26;;;;;;;10.32;5.85;;;;;;;19.70;84.70;98831.91;5005226;28;20100;-94
2022/09/07 06:11:52;;;;;;;8.77;5.43;;;;;;;19.80;83.88;98837.63;5005250;28;20136;-93
2022/09/07 06:14:18;;;;;;;13.05;5.95;;;;;;;19.87;83.16;98838.94;5002499;28;20050;-94
2022/09/07 06:16:44;;;;;;;11.60;6.18;;;;;;;19.94;83.10;98854.75;5004264;28;20046;-96
2022/09/07 06:19:10;;;;;;;9.90;5.45;;;;;;;20.16;82.35;98848.81;5002124;28;20042;-95
2022/09/07 06:21:37;;;;;;;13.50;7.03;;;;;;;20.38;80.92;98843.75;5003324;28;20110;-95
2022/09/07 06:24:04;;;;;;;10.73;5.95;;;;;;;20.61;79.65;98836.84;5001104;28;20046;-95
2022/09/07 06:26:32;;;;;;;11.02;5.57;;;;;;;20.95;78.63;98861.59;5002619;28;20039;-96
2022/09/07 06:28:58;;;;;;;10.70;5.63;;;;;;;21.09;78.08;98844.41;5003447;28;20102;-94
2022/09/07 06:31:25;;;;;;;13.07;5.78;;;;;;;21.31;77.53;98854.59;5002938;28;20042;-95
2022/09/07 06:33:53;;;;;;;9.27;5.90;;;;;;;21.29;76.93;98827.66;5005628;28;20106;-95
2022/09/07 06:36:20;;;;;;;;;;;;;;;21.61;75.94;98864.28;5006596;28;20070;-95
2022/09/07 06:38:47;;;;;;;18.42;6.38;;;;;;;21.53;75.21;98835.94;5003254;28;19921;-95
2022/09/07 06:41:16;;;;;;;9.07;5.47;;;;;;;21.66;74.53;98835.03;5007152;28;20049;-96
2022/09/07 06:43:58;;;;;;;10.43;6.18;;;;;;;21.87;74.49;98846.19;5010501;28;20058;-95
2022/09/07 06:46:29;;;;;;;17.90;6.05;;;;;;;22.01;73.67;98842.44;5010401;28;20046;-96
2022/09/07 06:48:59;;;;;;;12.63;5.93;;;;;;;22.30;71.94;98843.06;5009281;28;20038;-96
2022/09/07 06:51:28;;;;;;;9.60;5.10;;;;;;;22.48;69.39;98846.25;5012706;28;20075;-95
2022/09/07 06:54:15;;;;;;;8.23;5.50;;;;;;;22.50;70.16;98836.16;5010623;28;20046;-95
2022/09/07 06:59:43;;;;;;;8.88;5.60;;;;;;;22.73;66.17;98838.00;4992791;28;20058;-96
2022/09/07 07:02:13;;;;;;;9.10;5.22;;;;;;;22.83;64.97;98837.28;4988633;28;20074;-95
2022/09/07 07:04:39;;;;;;;9.43;5.50;;;;;;;23.00;63.54;98845.03;4987145;28;20092;-96
2022/09/07 07:07:09;;;;;;;11.55;5.32;;;;;;;23.21;63.42;98836.22;4986584;28;20140;-95
2022/09/07 07:09:35;;;;;;;8.90;5.38;;;;;;;23.53;64.27;98856.25;4987505;28;20073;-95
2022/09/07 07:12:01;;;;;;;10.30;5.68;;;;;;;23.58;63.36;98836.88;4987695;28;20053;-95
2022/09/07 07:14:28;;;;;;;10.35;5.60;;;;;;;23.70;63.99;98818.72;4984947;28;20155;-94
2022/09/07 07:16:55;;;;;;;12.73;5.95;;;;;;;23.98;63.68;98852.69;4988966;28;20520;-93
2022/09/07 07:19:21;;;;;;;10.02;5.68;;;;;;;24.02;63.84;98847.91;4981631;28;20050;-94
2022/09/07 07:21:48;;;;;;;12.00;5.70;;;;;;;24.01;63.60;98825.31;5011878;28;20075;-95
2022/09/07 07:24:16;;;;;;;12.27;5.80;;;;;;;24.15;63.14;98824.16;5092634;28;20127;-96
2022/09/07 07:26:52;;;;;;;10.02;5.47;;;;;;;24.22;63.53;98825.38;5096072;28;20055;-95
2022/09/07 07:29:25;;;;;;;12.30;6.18;;;;;;;24.46;63.09;98848.81;5089817;28;20051;-94
2022/09/07 07:32:03;;;;;;;12.60;6.10;;;;;;;24.56;62.08;98847.94;5096026;28;20036;-95
2022/09/07 07:34:39;;;;;;;11.18;5.60;;;;;;;24.70;62.06;98863.13;5093864;28;20060;-94
2022/09/07 07:37:21;;;;;;;11.60;6.20;;;;;;;24.72;61.35;98843.94;5040391;28;20061;-95
2022/09/07 07:39:56;;;;;;;15.48;6.25;;;;;;;24.74;60.30;98837.38;5237738;22;20075;-92
2022/09/07 07:42:25;;;;;;;13.85;6.60;;;;;;;24.73;60.14;98842.94;5072971;28;20113;-95
2022/09/07 07:44:56;;;;;;;11.43;5.88;;;;;;;24.88;60.13;98859.84;5077099;28;20052;-95
2022/09/07 07:47:25;;;;;;;13.60;5.68;;;;;;;24.90;56.93;98853.25;5077100;28;20057;-93
2022/09/07 07:49:55;;;;;;;11.20;6.00;;;;;;;24.91;59.08;98837.81;5074983;28;20131;-95
2022/09/07 07:52:23;;;;;;;9.02;5.50;;;;;;;25.04;58.41;98843.91;5073403;28;20140;-95
2022/09/07 07:54:51;;;;;;;9.65;5.93;;;;;;;24.56;57.42;98839.78;5070004;28;20045;-95
2022/09/07 07:57:18;;;;;;;10.15;5.88;;;;;;;24.15;58.20;98854.06;5071832;28;20045;-95
2022/09/07 07:59:44;;;;;;;11.73;6.13;;;;;;;24.42;58.46;98847.31;5072372;28;20041;-93
2022/09/07 08:02:15;;;;;;;10.10;6.15;;;;;;;24.73;59.55;98851.97;5065680;28;20051;-94
2022/09/07 08:04:42;;;;;;;11.73;6.05;;;;;;;25.05;58.15;98850.22;5067226;28;20048;-94
2022/09/07 08:07:11;;;;;;;10.57;5.80;;;;;;;25.18;57.68;98840.88;5071642;28;20064;-95
2022/09/07 08:09:39;;;;;;;10.93;5.82;;;;;;;25.40;56.98;98834.47;5073676;28;20128;-95
2022/09/07 08:12:05;;;;;;;12.68;5.75;;;;;;;25.06;59.04;98846.50;5068796;28;20075;-95
2022/09/07 08:14:31;;;;;;;9.45;6.05;;;;;;;25.18;58.95;98854.50;5067378;28;20113;-94
2022/09/07 08:16:58;;;;;;;13.25;6.32;;;;;;;25.44;58.85;98843.25;5072051;28;20057;-94
2022/09/07 08:19:29;;;;;;;12.20;6.28;;;;;;;25.64;57.13;98836.03;5073985;28;20379;-94
2022/09/07 08:28:30;;;;;;;10.52;6.25;;;;;;;25.63;58.41;98845.19;5084858;28;20051;-95
2022/09/07 08:31:02;;;;;;;8.95;6.20;;;;;;;26.12;57.08;98856.34;5089947;28;20066;-93
2022/09/07 08:33:29;;;;;;;12.30;6.68;;;;;;;26.62;55.01;98849.03;5087383;28;20052;-96
2022/09/07 08:35:57;;;;;;;14.15;6.63;;;;;;;26.64;54.40;98844.28;5092164;28;20048;-95
2022/09/07 08:38:23;;;;;;;;;;;;;;;26.80;53.75;98879.19;5089995;28;20068;-94
2022/09/07 08:40:50;;;;;;;10.93;5.97;;;;;;;26.88;54.00;98843.00;5088993;28;20369;-95
2022/09/07 08:43:36;;;;;;;10.68;6.13;;;;;;;27.50;51.24;98837.22;5087677;28;20076;-95
2022/09/07 08:46:12;;;;;;;10.27;6.45;;;;;;;28.12;49.07;98857.59;5086433;28;20044;-95
2022/09/07 08:48:40;;;;;;;13.75;6.38;;;;;;;28.03;48.94;98845.69;5089127;28;20041;-95
2022/09/07 08:51:11;;;;;;;11.23;5.88;;;;;;;28.15;49.07;98861.88;5089366;28;20048;-95
2022/09/07 08:53:44;;;;;;;11.55;6.00;;;;;;;28.26;48.85;98862.56;5088326;28;20062;-95
2022/09/07 08:56:16;;;;;;;15.00;6.35;;;;;;;27.65;48.75;98863.03;5085789;28;20502;-96
2022/09/07 08:58:46;;;;;;;12.63;6.68;;;;;;;27.92;49.83;98848.63;5090450;28;20048;-95
2022/09/07 09:01:15;;;;;;;17.33;7.00;;;;;;;27.55;49.83;98851.31;5086315;28;20041;-95
2022/09/07 09:03:41;;;;;;;14.43;6.90;;;;;;;27.31;50.12;98849.06;5087613;28;20048;-95
2022/09/07 09:06:19;;;;;;;14.10;6.32;;;;;;;27.43;50.73;98848.75;5083398;28;20043;-95
2022/09/07 09:09:02;;;;;;;12.60;7.20;;;;;;;27.52;49.78;98851.59;5087541;28;20064;-96
2022/09/07 09:11:42;;;;;;;13.88;7.40;;;;;;;27.16;51.90;98848.59;5087799;28;20068;-96
2022/09/07 09:14:17;;;;;;;11.27;6.20;;;;;;;27.38;50.53;98847.47;5089842;28;20108;-95
2022/09/07 09:16:49;;;;;;;13.90;6.78;;;;;;;27.01;51.20;98859.09;5086776;28;20052;-94
2022/09/07 09:19:44;;;;;;;14.98;7.00;;;;;;;26.90;50.93;98848.34;5088558;28;20044;-96
2022/09/07 09:22:13;;;;;;;13.50;7.63;;;;;;;27.14;53.43;98842.44;5087639;28;20054;-96
2022/09/07 09:24:45;;;;;;;12.25;6.95;;;;;;;27.43;50.71;98835.09;5084950;28;20114;-94
2022/09/07 09:27:11;;;;;;;14.30;7.75;;;;;;;27.53;50.19;98837.78;5091046;28;20037;-96
2022/09/07 09:29:37;;;;;;;12.75;7.40;;;;;;;26.92;52.74;98849.91;5083574;28;20056;-95
2022/09/07 09:32:37;;;;;;;17.10;7.20;;;;;;;27.29;51.92;98851.94;5087061;28;20044;-94
2022/09/07 09:35:12;;;;;;;14.25;7.13;;;;;;;27.70;50.37;98863.50;5088927;28;20066;-95
2022/09/07 09:37:41;;;;;;;11.63;6.78;;;;;;;27.66;51.20;98829.28;5089934;28;20024;-95
2022/09/07 09:40:19;;;;;;;13.60;7.35;;;;;;;27.82;51.15;98834.09;5086109;28;20064;-95
2022/09/07 09:42:47;;;;;;;21.13;7.30;;;;;;;27.84;50.90;98843.00;5089227;28;20060;-95
2022/09/07 09:45:19;;;;;;;21.65;7.53;;;;;;;27.75;51.53;98819.31;5087247;28;20052;-95
2022/09/07 09:47:53;;;;;;;15.80;7.40;;;;;;;27.94;50.93;98823.88;5085302;28;20044;-95
2022/09/07 09:50:29;;;;;;;15.07;7.13;;;;;;;28.04;50.29;98811.88;5084573;28;20047;-95
2022/09/07 09:52:56;;;;;;;14.27;7.47;;;;;;;27.89;50.84;98815.25;5075783;28;20044;-95
2022/09/07 09:55:25;;;;;;;19.08;7.55;;;;;;;27.65;51.07;98825.69;5073828;28;20048;-95
2022/09/07 09:57:57;;;;;;;17.20;7.63;;;;;;;27.84;52.49;98826.59;5073669;28;20110;-96
2022/09/07 10:00:29;;;;;;;22.17;7.80;;;;;;;27.99;50.52;98811.47;5083898;28;20493;-96
2022/09/07 10:03:06;;;;;;;14.25;7.22;;;;;;;28.10;50.74;98812.28;5083089;28;20044;-95
2022/09/07 10:05:35;;;;;;;19.75;6.60;;;;;;;28.22;50.45;98805.59;5078602;28;20489;-95
2022/09/07 10:08:03;;;;;;;14.27;7.40;;;;;;;27.98;50.58;98798.81;5080126;28;20040;-94
2022/09/07 10:10:30;;;;;;;12.65;7.90;;;;;;;28.06;50.54;98800.78;5079210;28;20044;-95
2022/09/07 10:12:58;;;;;;;19.55;6.78;;;;;;;28.15;50.82;98824.50;5080374;28;20094;-96
2022/09/07 10:15:35;;;;;;;20.02;7.80;;;;;;;27.99;50.94;98799.69;5080922;28;20525;-95
2022/09/07 10:18:06;;;;;;;18.85;7.07;;;;;;;28.21;51.93;98799.25;5085457;28;20040;-96
2022/09/07 10:20:34;;;;;;;22.60;6.88;;;;;;;28.35;50.96;98788.84;5083449;28;20044;-95
2022/09/07 10:23:02;;;;;;;16.55;7.20;;;;;;;28.25;51.12;98789.72;5085758;28;20048;-95
2022/09/07 10:25:31;;;;;;;16.27;7.25;;;;;;;28.32;51.09;98791.84;5086103;28;21354;-93
2022/09/07 10:28:03;;;;;;;18.55;7.50;;;;;;;28.08;51.54;98793.28;5080717;28;20055;-94
2022/09/07 10:30:38;;;;;;;27.30;7.63;;;;;;;28.17;53.17;98810.66;5081431;28;20073;-93
2022/09/07 10:33:12;;;;;;;15.13;7.13;;;;;;;28.11;52.83;98784.81;5081948;28;20074;-94
2022/09/07 10:35:47;;;;;;;19.33;7.43;;;;;;;28.42;51.43;98798.13;5078253;28;20048;-95
2022/09/07 10:38:16;;;;;;;20.83;7.15;;;;;;;28.37;51.94;98781.34;5078633;28;20041;-95
2022/09/07 10:40:46;;;;;;;23.65;8.43;;;;;;;28.58;51.20;98800.19;5081043;28;20486;-94
2022/09/07 10:43:21;;;;;;;14.70;7.32;;;;;;;28.54;50.89;98772.31;5080402;28;20045;-96
2022/09/07 10:46:05;;;;;;;23.58;7.22;;;;;;;28.56;51.19;98783.06;5081342;28;20051;-92
2022/09/07 10:48:44;;;;;;;16.40;7.70;;;;;;;28.42;51.52;98777.09;5081480;28;20051;-95
2022/09/07 10:51:15;;;;;;;18.13;7.57;;;;;;;28.18;50.84;98750.34;5081381;28;20041;-94
2022/09/07 10:53:49;;;;;;;20.35;7.32;;;;;;;28.13;50.29;98749.97;5084168;28;20536;-95
2022/09/07 10:56:21;;;;;;;20.98;7.10;;;;;;;28.33;51.01;98745.22;5062039;28;20045;-96
2022/09/07 10:59:01;;;;;;;19.25;6.90;;;;;;;28.56;51.45;98748.41;5080496;28;20051;-96
2022/09/07 11:01:40;;;;;;;14.45;7.18;;;;;;;28.67;50.08;98725.41;5086046;28;20093;-96
2022/09/07 11:04:27;;;;;;;17.52;7.22;;;;;;;28.82;49.65;98740.25;5086322;28;20053;-93
2022/09/07 11:07:00;;;;;;;21.53;7.73;;;;;;;28.77;49.69;98752.66;5083114;28;20051;-93
2022/09/07 11:09:42;;;;;;;19.73;6.82;;;;;;;28.60;50.60;98737.97;5082843;28;20460;-94
2022/09/07 11:12:16;;;;;;;17.50;7.22;;;;;;;28.57;50.39;98732.84;5086438;28;20049;-96
2022/09/07 11:14:47;;;;;;;20.35;6.57;;;;;;;28.85;49.99;98742.66;5085655;28;20056;-93
2022/09/07 11:17:17;;;;;;;18.17;6.75;;;;;;;28.96;49.42;98721.53;5085502;28;20120;-95
2022/09/07 11:19:52;;;;;;;15.10;6.35;;;;;;;29.07;49.52;98724.00;5084050;28;20041;-96
2022/09/07 11:22:27;;;;;;;17.50;7.30;;;;;;;29.18;48.24;98734.69;5085818;28;20044;-96
2022/09/07 11:24:58;;;;;;;20.55;7.38;;;;;;;28.69;49.65;98726.06;5078057;28;20138;-94
2022/09/07 11:27:28;;;;;;;21.00;7.10;;;;;;;28.65;49.77;98721.97;5075947;28;20048;-95
2022/09/07 11:30:03;;;;;;;22.27;6.65;;;;;;;28.56;51.04;98734.72;5078657;28;20075;-95
2022/09/07 11:32:32;;;;;;;16.58;6.63;;;;;;;28.66;50.56;98713.56;5080275;28;20511;-96
2022/09/07 11:35:05;;;;;;;18.05;7.15;;;;;;;28.91;49.39;98710.16;5080274;28;20060;-96
2022/09/07 11:37:37;;;;;;;15.43;7.28;;;;;;;29.21;49.72;98711.59;5079775;28;20041;-94
2022/09/07 11:40:11;;;;;;;16.48;6.65;;;;;;;29.32;48.71;98699.50;5077412;28;20052;-94
2022/09/07 11:42:47;;;;;;;17.92;7.53;;;;;;;29.37;49.13;98697.16;5078943;28;20044;-95
2022/09/07 11:45:16;;;;;;;18.95;6.88;;;;;;;29.43;49.32;98716.53;5080015;28;20048;-94
2022/09/07 11:47:47;;;;;;;16.95;6.47;;;;;;;29.45;47.39;98719.09;5081971;28;20568;-96
2022/09/07 11:50:16;;;;;;;21.40;6.88;;;;;;;29.43;47.40;98702.84;5084073;28;20104;-96
2022/09/07 11:52:49;;;;;;;15.60;6.05;;;;;;;29.46;47.16;98683.31;5082250;28;20048;-96
2022/09/07 11:55:24;;;;;;;20.35;6.82;;;;;;;29.47;47.14;98690.53;5080909;28;20096;-95